Time;durP1;ratioP1;P1;durP2;ratioP2;P2;SDS_P1;SDS_P2;PMS_P1;PMS_P2;Temp;Humidity;BMP_temperature;BMP_pressure;BME280_temperature;BME280_humidity;BME280_pressure;Samples;Min_cycle;Max_cycle;Signal;HPM_P1;HPM_P2
2021/01/07 00:02:22;;;;;;;28.10;18.60;;;;;;;2.91;97.89;99920.59;1736108;82;21461;-66
2021/01/07 00:04:49;;;;;;;20.75;15.85;;;;;;;2.83;97.97;99916.77;1765085;81;21139;-62
2021/01/07 00:07:17;;;;;;;26.97;16.02;;;;;;;2.83;98.36;99914.91;1733842;82;21121;-69
2021/01/07 00:09:45;;;;;;;23.02;14.23;;;;;;;2.80;98.49;99919.79;1764039;80;21119;-67
2021/01/07 00:12:13;;;;;;;27.60;15.58;;;;;;;2.78;98.63;99912.00;1734528;82;21180;-72
2021/01/07 00:14:40;;;;;;;23.73;16.17;;;;;;;2.81;98.75;99916.13;1764562;81;22125;-70
2021/01/07 00:17:09;;;;;;;23.40;15.85;;;;;;;2.82;98.90;99919.10;1733724;82;21022;-71
2021/01/07 00:19:36;;;;;;;22.67;15.45;;;;;;;2.83;99.04;99920.75;1762039;81;22211;-71
2021/01/07 00:22:04;;;;;;;25.02;16.17;;;;;;;2.80;99.07;99926.42;1735834;82;21470;-69
2021/01/07 00:24:31;;;;;;;30.45;19.17;;;;;;;2.81;99.24;99936.05;1765835;81;21603;-64
2021/01/07 00:26:59;;;;;;;18.82;12.82;;;;;;;2.86;99.42;99929.14;1765532;81;21364;-67
2021/01/07 00:29:26;;;;;;;26.42;16.93;;;;;;;2.88;99.42;99924.44;1762991;80;21597;-64
2021/01/07 00:31:54;;;;;;;20.10;13.03;;;;;;;2.87;99.41;99918.02;1734355;82;21148;-68
2021/01/07 00:34:22;;;;;;;20.25;14.15;;;;;;;2.81;99.56;99917.45;1765270;81;21213;-70
2021/01/07 00:36:58;;;;;;;23.05;13.88;;;;;;;2.78;99.89;99913.88;1765314;80;21158;-66
2021/01/07 00:39:26;;;;;;;23.80;16.77;;;;;;;2.72;100.00;99914.64;1782466;80;23535;-69
2021/01/07 00:41:56;;;;;;;17.52;11.50;;;;;;;2.65;100.00;99926.52;1756934;81;21119;-69
2021/01/07 00:44:25;;;;;;;18.12;11.95;;;;;;;2.56;100.00;99928.50;1741694;82;21121;-68
2021/01/07 00:46:52;;;;;;;17.95;10.45;;;;;;;2.47;100.00;99919.05;1741706;82;21038;-69
2021/01/07 00:49:20;;;;;;;15.75;9.60;;;;;;;2.46;100.00;99914.73;1776744;80;21166;-72
2021/01/07 00:51:49;;;;;;;17.82;10.70;;;;;;;2.44;100.00;99923.41;1762421;80;21387;-74
2021/01/07 00:54:22;;;;;;;15.75;10.35;;;;;;;2.42;100.00;99920.62;1742743;82;21176;-73
2021/01/07 00:56:50;;;;;;;18.07;10.13;;;;;;;2.41;100.00;99921.62;1742798;82;21212;-75
2021/01/07 00:59:19;;;;;;;16.25;11.45;;;;;;;2.40;100.00;99926.65;1742057;82;21204;-75
2021/01/07 01:01:48;;;;;;;19.40;10.80;;;;;;;2.43;100.00;99929.73;1788714;80;21129;-67
2021/01/07 01:04:17;;;;;;;16.32;10.18;;;;;;;2.45;100.00;99920.23;1755288;81;21378;-67
2021/01/07 01:06:44;;;;;;;22.77;12.18;;;;;;;2.42;100.00;99915.31;1741653;82;21124;-69
2021/01/07 01:09:12;;;;;;;17.23;10.05;;;;;;;2.42;100.00;99908.17;1740906;82;21137;-67
2021/01/07 01:11:45;;;;;;;17.62;10.78;;;;;;;2.44;100.00;99908.81;1742666;82;21117;-67
2021/01/07 01:14:13;;;;;;;22.17;13.68;;;;;;;2.49;100.00;99912.22;1741811;82;21141;-71
2021/01/07 01:16:41;;;;;;;21.05;12.05;;;;;;;2.51;100.00;99912.33;1742792;82;21217;-67
2021/01/07 01:19:09;;;;;;;21.73;14.47;;;;;;;2.50;100.00;99911.19;1742658;82;21180;-66
2021/01/07 01:21:36;;;;;;;19.95;12.18;;;;;;;2.46;100.00;99907.28;1788041;80;21691;-64
2021/01/07 01:24:05;;;;;;;24.52;13.22;;;;;;;2.42;100.00;99899.39;1757760;81;21977;-65
2021/01/07 01:26:32;;;;;;;20.02;13.93;;;;;;;2.42;100.00;99902.87;1742196;82;21141;-64
2021/01/07 01:29:00;;;;;;;25.08;14.83;;;;;;;2.45;100.00;99895.84;1740689;82;21477;-65
2021/01/07 01:31:27;;;;;;;24.07;13.62;;;;;;;2.50;100.00;99885.47;1741986;82;20995;-68
2021/01/07 01:33:55;;;;;;;23.22;14.05;;;;;;;2.54;100.00;99880.61;1741085;82;21531;-68
2021/01/07 01:36:25;;;;;;;22.87;14.35;;;;;;;2.56;100.00;99884.70;1790916;80;21165;-69
2021/01/07 01:38:53;;;;;;;19.32;13.08;;;;;;;2.59;100.00;99868.91;1783624;80;21176;-69
2021/01/07 01:41:21;;;;;;;19.82;14.03;;;;;;;2.64;100.00;99863.30;1737833;82;21373;-66
2021/01/07 01:43:48;;;;;;;16.17;10.78;;;;;;;2.74;100.00;99862.13;1727050;83;21999;-72
2021/01/07 01:46:16;;;;;;;22.37;15.88;;;;;;;2.79;100.00;99862.37;1757528;81;21410;-67
2021/01/07 01:48:43;;;;;;;21.10;14.58;;;;;;;2.78;100.00;99859.42;1738215;82;22296;-70
2021/01/07 01:51:11;;;;;;;21.33;14.98;;;;;;;2.82;100.00;99860.67;1710192;82;21167;-70
2021/01/07 01:53:39;;;;;;;19.15;12.13;;;;;;;2.84;100.00;99858.11;1727770;83;21216;-70
2021/01/07 01:56:06;;;;;;;21.68;15.60;;;;;;;2.90;100.00;99851.20;1740500;82;21136;-69
2021/01/07 01:58:35;;;;;;;22.95;15.03;;;;;;;2.93;100.00;99848.14;1738671;82;21168;-69
2021/01/07 02:01:03;;;;;;;21.75;14.78;;;;;;;2.93;100.00;99842.33;1744622;81;21187;-69
2021/01/07 02:03:30;;;;;;;24.57;17.65;;;;;;;2.95;100.00;99836.33;1738798;82;21530;-78
2021/01/07 02:05:58;;;;;;;19.87;12.73;;;;;;;2.93;100.00;99833.03;1728421;83;23626;-67
2021/01/07 02:08:26;;;;;;;19.40;16.02;;;;;;;2.92;100.00;99835.91;1710337;82;21602;-68
2021/01/07 02:10:54;;;;;;;18.27;12.90;;;;;;;2.87;100.00;99827.20;1694149;84;21150;-69
2021/01/07 02:13:21;;;;;;;19.90;15.55;;;;;;;2.89;100.00;99833.63;1697017;83;21642;-69
2021/01/07 02:15:51;;;;;;;24.30;16.25;;;;;;;2.89;100.00;99822.49;1709927;83;21214;-68
2021/01/07 02:18:18;;;;;;;31.77;17.45;;;;;;;2.89;100.00;99817.69;1709862;83;21204;-70
2021/01/07 02:20:46;;;;;;;18.55;14.20;;;;;;;2.90;100.00;99810.86;1724455;81;21932;-70
2021/01/07 02:23:14;;;;;;;21.62;16.27;;;;;;;2.93;100.00;99806.97;1739450;82;21140;-70
2021/01/07 02:25:41;;;;;;;24.07;16.50;;;;;;;2.95;100.00;99815.07;1728384;83;21173;-68
2021/01/07 02:28:09;;;;;;;24.47;16.70;;;;;;;2.98;100.00;99812.01;1739360;82;21116;-68
2021/01/07 02:30:36;;;;;;;24.92;16.05;;;;;;;2.97;100.00;99796.29;1708187;84;21377;-68
2021/01/07 02:33:04;;;;;;;24.20;16.65;;;;;;;2.96;100.00;99794.64;1740092;82;21190;-68
2021/01/07 02:35:31;;;;;;;22.67;15.63;;;;;;;2.91;100.00;99791.25;1738902;82;21181;-68
2021/01/07 02:37:59;;;;;;;19.90;14.47;;;;;;;2.91;100.00;99783.28;1726929;83;21174;-68
2021/01/07 02:40:26;;;;;;;22.20;15.60;;;;;;;2.91;100.00;99779.30;1735742;81;21109;-71
2021/01/07 02:42:53;;;;;;;21.87;14.10;;;;;;;2.91;100.00;99775.82;1763737;80;22817;-71
2021/01/07 02:45:21;;;;;;;27.67;16.23;;;;;;;2.94;100.00;99768.77;1763587;81;21122;-70
2021/01/07 02:47:48;;;;;;;25.32;15.28;;;;;;;2.94;100.00;99762.13;1763739;80;21105;-69
2021/01/07 02:50:16;;;;;;;26.17;18.37;;;;;;;2.93;100.00;99759.98;1735665;82;21630;-69
2021/01/07 02:52:45;;;;;;;20.32;15.03;;;;;;;2.94;100.00;99762.95;1728379;81;21142;-68
2021/01/07 02:55:14;;;;;;;22.22;15.53;;;;;;;2.97;100.00;99764.41;1744174;81;21290;-68
2021/01/07 02:57:42;;;;;;;24.65;16.23;;;;;;;2.93;100.00;99765.30;1764726;80;21695;-68
2021/01/07 03:00:12;;;;;;;27.58;19.85;;;;;;;2.90;100.00;99756.91;1764583;81;21042;-68
2021/01/07 03:02:40;;;;;;;21.93;14.95;;;;;;;2.84;100.00;99754.53;1765178;81;21611;-69
2021/01/07 03:05:09;;;;;;;25.82;15.53;;;;;;;2.88;100.00;99753.11;1702832;84;21630;-69
2021/01/07 03:07:37;;;;;;;28.92;19.27;;;;;;;2.84;100.00;99747.89;1734094;82;21376;-68
2021/01/07 03:10:11;;;;;;;31.65;20.43;;;;;;;2.79;100.00;99752.16;1763674;81;21165;-69
2021/01/07 03:12:38;;;;;;;27.22;18.15;;;;;;;2.80;100.00;99748.49;1762488;81;21101;-69
2021/01/07 03:15:08;;;;;;;23.35;15.88;;;;;;;2.81;100.00;99736.86;1734638;82;21113;-69
2021/01/07 03:17:35;;;;;;;26.15;17.57;;;;;;;2.81;100.00;99736.35;1711188;83;21146;-68
2021/01/07 03:20:06;;;;;;;28.00;17.75;;;;;;;2.78;100.00;99730.09;1765121;81;22259;-68
2021/01/07 03:22:33;;;;;;;30.10;19.00;;;;;;;2.76;100.00;99724.17;1765243;80;21022;-69
2021/01/07 03:25:01;;;;;;;28.47;18.40;;;;;;;2.79;100.00;99721.11;1765226;81;21209;-68
2021/01/07 03:27:28;;;;;;;32.75;20.35;;;;;;;2.80;100.00;99719.28;1764472;81;22048;-68
2021/01/07 03:29:56;;;;;;;34.45;22.25;;;;;;;2.84;100.00;99710.71;1735205;82;21634;-68
2021/01/07 03:32:24;;;;;;;31.40;19.73;;;;;;;2.84;100.00;99707.23;1763667;81;21423;-69
2021/01/07 03:34:52;;;;;;;36.70;21.90;;;;;;;2.82;100.00;99700.81;1764563;80;21141;-68
2021/01/07 03:37:20;;;;;;;34.27;21.23;;;;;;;2.77;100.00;99693.95;1736008;82;21615;-69
2021/01/07 03:39:47;;;;;;;36.65;22.13;;;;;;;2.76;100.00;99688.83;1762528;80;21101;-71
2021/01/07 03:42:14;;;;;;;32.83;21.07;;;;;;;2.72;100.00;99695.56;1733633;82;21542;-69
2021/01/07 03:44:42;;;;;;;31.55;21.68;;;;;;;2.73;100.00;99699.86;1735900;82;21213;-69
2021/01/07 03:47:10;;;;;;;32.20;17.00;;;;;;;2.72;100.00;99696.38;1742107;81;22257;-69
2021/01/07 03:49:37;;;;;;;30.37;21.62;;;;;;;2.63;100.00;99690.44;1765372;81;21142;-69
2021/01/07 03:52:04;;;;;;;35.70;22.80;;;;;;;2.59;100.00;99693.16;1765381;81;21157;-69
2021/01/07 03:54:32;;;;;;;36.40;23.25;;;;;;;2.56;100.00;99694.88;1736681;82;21165;-70
2021/01/07 03:57:00;;;;;;;37.70;22.37;;;;;;;2.55;100.00;99684.45;1736381;82;21161;-69
2021/01/07 03:59:27;;;;;;;35.75;24.25;;;;;;;2.58;100.00;99685.41;1734558;82;21922;-69
2021/01/07 04:01:55;;;;;;;35.38;21.62;;;;;;;2.56;100.00;99676.81;1734045;82;21133;-68
2021/01/07 04:04:22;;;;;;;36.77;22.32;;;;;;;2.54;100.00;99677.53;1733495;82;21651;-67
2021/01/07 04:06:49;;;;;;;38.58;25.55;;;;;;;2.51;100.00;99660.15;1732961;82;21172;-69
2021/01/07 04:09:17;;;;;;;35.68;20.20;;;;;;;2.56;100.00;99659.05;1765427;81;21438;-66
2021/01/07 04:11:45;;;;;;;35.28;22.85;;;;;;;2.64;100.00;99661.52;1764991;81;21130;-69
2021/01/07 04:14:13;;;;;;;36.35;23.95;;;;;;;2.71;100.00;99660.73;1765483;81;21098;-69
2021/01/07 04:16:40;;;;;;;29.52;20.17;;;;;;;2.70;100.00;99664.39;1736708;82;21180;-69
2021/01/07 04:19:08;;;;;;;31.60;19.45;;;;;;;2.70;100.00;99657.75;1734696;82;21176;-68
2021/01/07 04:21:45;;;;;;;30.10;19.20;;;;;;;2.68;100.00;99667.27;1736342;82;21389;-70
2021/01/07 04:24:06;;;;;;;30.43;20.97;;;;;;;2.65;100.00;99658.36;1746928;81;21136;-70
2021/01/07 04:26:34;;;;;;;27.30;16.35;;;;;;;2.66;100.00;99663.16;1733214;82;21204;-71
2021/01/07 04:29:02;;;;;;;23.67;16.17;;;;;;;2.71;100.00;99670.84;1735074;82;21188;-68
2021/01/07 04:31:30;;;;;;;25.68;18.62;;;;;;;2.64;100.00;99659.37;1740225;81;21077;-69
2021/01/07 04:33:58;;;;;;;30.45;19.37;;;;;;;2.57;100.00;99657.22;1734690;82;21394;-69
2021/01/07 04:36:25;;;;;;;26.35;14.58;;;;;;;2.58;100.00;99653.55;1765407;80;21632;-69
2021/01/07 04:38:53;;;;;;;21.68;15.55;;;;;;;2.56;100.00;99647.10;1763866;81;21587;-68
2021/01/07 04:41:21;;;;;;;25.48;17.20;;;;;;;2.53;100.00;99646.19;1789793;80;21665;-75
2021/01/07 04:43:57;;;;;;;21.25;14.80;;;;;;;2.56;100.00;99646.28;1789879;80;21133;-69
2021/01/07 04:46:26;;;;;;;24.27;15.40;;;;;;;2.57;100.00;99650.58;1788454;80;21165;-68
2021/01/07 04:48:54;;;;;;;16.32;10.82;;;;;;;2.56;100.00;99653.73;1790808;80;21555;-69
2021/01/07 04:51:22;;;;;;;22.07;14.23;;;;;;;2.54;100.00;99653.11;1790975;80;21153;-69
2021/01/07 04:53:56;;;;;;;17.80;12.18;;;;;;;2.54;100.00;99645.68;1791004;80;21587;-74
2021/01/07 04:56:24;;;;;;;18.98;13.03;;;;;;;2.58;100.00;99642.93;1791100;80;21638;-69
2021/01/07 04:58:51;;;;;;;19.20;13.93;;;;;;;2.59;100.00;99648.55;1789892;80;21266;-70
2021/01/07 05:01:19;;;;;;;17.60;13.43;;;;;;;2.62;100.00;99648.97;1789974;80;21623;-68
2021/01/07 05:03:46;;;;;;;19.85;12.82;;;;;;;2.66;100.00;99654.69;1732498;81;21201;-69
2021/01/07 05:06:14;;;;;;;18.12;13.20;;;;;;;2.71;100.00;99658.08;1742854;82;21143;-70
2021/01/07 05:08:42;;;;;;;18.73;12.90;;;;;;;2.70;100.00;99650.61;1741231;82;21120;-70
2021/01/07 05:11:09;;;;;;;17.87;12.00;;;;;;;2.67;100.00;99650.20;1733972;82;21212;-68
2021/01/07 05:13:37;;;;;;;18.17;13.55;;;;;;;2.68;100.00;99643.37;1742040;82;21065;-74
2021/01/07 05:16:05;;;;;;;20.50;14.35;;;;;;;2.71;100.00;99638.16;1692459;82;21197;-70
2021/01/07 05:18:32;;;;;;;19.40;13.28;;;;;;;2.72;100.00;99641.13;1741148;82;21646;-70
2021/01/07 05:21:00;;;;;;;20.10;14.30;;;;;;;2.74;100.00;99629.78;1789546;80;21050;-70
2021/01/07 05:23:28;;;;;;;14.90;12.47;;;;;;;2.78;100.00;99633.16;1790050;80;21212;-69
2021/01/07 05:25:56;;;;;;;13.48;10.00;;;;;;;2.78;100.00;99631.83;1741053;81;21066;-69
2021/01/07 05:28:23;;;;;;;14.43;10.55;;;;;;;2.79;100.00;99626.83;1741383;82;21593;-68
2021/01/07 05:30:51;;;;;;;17.00;11.00;;;;;;;2.82;100.00;99619.81;1766790;80;21101;-70
2021/01/07 05:33:18;;;;;;;16.05;11.40;;;;;;;2.78;100.00;99617.77;1756088;81;21563;-67
2021/01/07 05:35:46;;;;;;;18.65;11.33;;;;;;;2.72;100.00;99610.59;1742767;82;21264;-68
2021/01/07 05:38:15;;;;;;;20.37;13.72;;;;;;;2.74;100.00;99613.84;1742465;82;21180;-69
2021/01/07 05:40:44;;;;;;;18.35;12.82;;;;;;;2.70;100.00;99608.12;1722164;80;21192;-69
2021/01/07 05:43:12;;;;;;;17.20;12.00;;;;;;;2.70;100.00;99599.34;1713970;81;21129;-68
2021/01/07 05:45:42;;;;;;;16.80;11.65;;;;;;;2.69;100.00;99597.70;1779022;80;21168;-70
2021/01/07 05:48:11;;;;;;;16.15;11.05;;;;;;;2.70;100.00;99595.36;1789362;80;21209;-70
2021/01/07 05:50:40;;;;;;;19.82;13.20;;;;;;;2.73;100.00;99598.96;1790159;80;21040;-69
2021/01/07 05:53:08;;;;;;;19.92;11.50;;;;;;;2.77;100.00;99594.38;1758628;81;21584;-71
2021/01/07 05:55:36;;;;;;;21.27;14.20;;;;;;;2.80;100.00;99591.30;1752608;81;21119;-69
2021/01/07 05:58:04;;;;;;;18.75;13.45;;;;;;;2.81;100.00;99586.30;1768353;80;21177;-69
2021/01/07 06:00:33;;;;;;;32.80;18.92;;;;;;;2.84;100.00;99584.56;1790850;80;21431;-69
2021/01/07 06:03:02;;;;;;;27.48;17.80;;;;;;;2.86;100.00;99591.00;1788095;80;21083;-69
2021/01/07 06:05:30;;;;;;;35.60;21.50;;;;;;;2.84;100.00;99587.72;1789047;80;20983;-69
2021/01/07 06:07:58;;;;;;;36.38;21.23;;;;;;;2.82;100.00;99587.95;1792180;80;21039;-69
2021/01/07 06:10:25;;;;;;;29.32;14.95;;;;;;;2.84;100.00;99587.22;1789765;80;21185;-68
2021/01/07 06:12:54;;;;;;;33.23;18.37;;;;;;;2.88;100.00;99591.09;1788473;80;22240;-68
2021/01/07 06:15:23;;;;;;;38.10;22.20;;;;;;;2.87;100.00;99589.99;1758175;81;21161;-69
2021/01/07 06:17:51;;;;;;;39.23;19.23;;;;;;;2.88;100.00;99596.91;1742480;82;21228;-69
2021/01/07 06:20:20;;;;;;;38.85;22.35;;;;;;;2.86;100.00;99595.81;1715802;82;22068;-72
2021/01/07 06:22:52;;;;;;;48.90;26.37;;;;;;;2.84;100.00;99599.16;1742065;82;21148;-69
2021/01/07 06:25:22;;;;;;;48.87;23.98;;;;;;;2.87;100.00;99590.81;1741640;82;22122;-69
2021/01/07 06:27:51;;;;;;;44.10;21.60;;;;;;;2.94;100.00;99586.81;1742620;82;21184;-70
2021/01/07 06:30:24;;;;;;;48.42;23.90;;;;;;;2.96;100.00;99586.94;1739360;82;21145;-70
2021/01/07 06:33:04;;;;;;;52.78;24.20;;;;;;;2.88;100.00;99591.09;1789851;80;21734;-69
2021/01/07 06:35:38;;;;;;;43.02;20.92;;;;;;;2.82;100.00;99593.25;1755585;81;21125;-71
2021/01/07 06:38:05;;;;;;;36.73;17.23;;;;;;;2.80;100.00;99584.66;1765912;80;21478;-73
2021/01/07 06:40:43;;;;;;;39.70;22.77;;;;;;;2.78;100.00;99585.90;1785250;80;21161;-70
2021/01/07 06:43:19;;;;;;;39.63;20.30;;;;;;;2.76;100.00;99587.42;1763839;80;21019;-72
2021/01/07 06:45:56;;;;;;;37.75;17.57;;;;;;;2.74;100.00;99592.61;1787017;80;21003;-70
2021/01/07 06:48:32;;;;;;;42.85;24.20;;;;;;;2.77;100.00;99581.09;1787533;80;21146;-70
2021/01/07 06:51:02;;;;;;;43.08;20.20;;;;;;;2.83;100.00;99580.80;1755344;81;21380;-69
2021/01/07 06:53:35;;;;;;;40.48;18.25;;;;;;;2.87;100.00;99575.38;1731076;81;21139;-70
2021/01/07 06:56:22;;;;;;;47.45;22.40;;;;;;;2.92;100.00;99579.58;1734019;82;28383;-71
2021/01/07 06:58:48;;;;;;;37.65;18.75;;;;;;;2.92;100.00;99592.35;1734241;82;21543;-71
2021/01/07 07:01:18;;;;;;;45.55;22.13;;;;;;;2.95;100.00;99593.27;1784891;80;21218;-69
2021/01/07 07:03:51;;;;;;;36.05;20.57;;;;;;;2.98;100.00;99595.50;1783996;80;22357;-67
2021/01/07 07:06:22;;;;;;;36.13;21.85;;;;;;;3.01;100.00;99591.13;1783971;80;20956;-68
2021/01/07 07:08:50;;;;;;;30.70;16.70;;;;;;;3.04;100.00;99591.22;1753748;81;21635;-69
2021/01/07 07:11:30;;;;;;;40.52;22.77;;;;;;;3.03;100.00;99587.75;1744668;80;21223;-72
2021/01/07 07:13:59;;;;;;;32.93;18.25;;;;;;;3.02;100.00;99590.63;1730668;82;21190;-68
2021/01/07 07:16:32;;;;;;;38.95;22.62;;;;;;;3.00;100.00;99586.83;1732839;82;21390;-69
2021/01/07 07:19:00;;;;;;;38.50;19.77;;;;;;;2.99;100.00;99583.86;1734398;82;21141;-69
2021/01/07 07:21:28;;;;;;;42.50;22.15;;;;;;;2.95;100.00;99574.67;1785003;80;21588;-68
2021/01/07 07:24:02;;;;;;;29.85;16.73;;;;;;;2.97;100.00;99575.27;1784014;80;21118;-69
2021/01/07 07:26:35;;;;;;;30.27;16.82;;;;;;;3.00;100.00;99574.06;1778296;80;21166;-70
2021/01/07 07:29:06;;;;;;;26.12;16.17;;;;;;;3.00;100.00;99566.91;1757304;81;22369;-69
2021/01/07 07:31:40;;;;;;;26.80;16.10;;;;;;;2.96;100.00;99564.87;1756287;81;21036;-69
2021/01/07 07:34:07;;;;;;;19.73;11.60;;;;;;;2.95;100.00;99561.39;1735581;82;21181;-69
2021/01/07 07:36:37;;;;;;;23.20;12.82;;;;;;;2.98;100.00;99564.13;1733516;82;21113;-71
2021/01/07 07:39:06;;;;;;;16.65;12.50;;;;;;;2.97;100.00;99543.93;1720566;81;21248;-67
2021/01/07 07:41:44;;;;;;;17.80;14.55;;;;;;;2.97;100.00;99548.70;1782291;80;21172;-68
2021/01/07 07:44:15;;;;;;;15.95;12.70;;;;;;;3.00;100.00;99543.52;1784423;80;21201;-67
2021/01/07 07:46:43;;;;;;;17.65;12.68;;;;;;;3.02;100.00;99545.46;1784077;80;21165;-67
2021/01/07 07:49:11;;;;;;;16.10;10.03;;;;;;;3.09;100.00;99542.28;1784004;80;21174;-67
2021/01/07 07:51:40;;;;;;;20.62;14.15;;;;;;;3.14;100.00;99534.51;1769744;80;22080;-66
2021/01/07 07:54:10;;;;;;;16.17;11.83;;;;;;;3.14;100.00;99535.02;1785765;80;21188;-68
2021/01/07 07:56:38;;;;;;;18.62;13.08;;;;;;;3.11;100.00;99524.81;1783345;80;21193;-68
2021/01/07 07:59:11;;;;;;;13.30;10.72;;;;;;;3.15;100.00;99515.41;1756561;81;21547;-71
2021/01/07 08:01:44;;;;;;;17.17;12.20;;;;;;;3.15;100.00;99518.06;1745070;81;21146;-70
2021/01/07 08:04:15;;;;;;;16.35;11.85;;;;;;;3.12;100.00;99509.19;1776773;80;21615;-69
2021/01/07 08:06:47;;;;;;;15.32;11.55;;;;;;;3.13;100.00;99496.18;1776292;80;21592;-67
2021/01/07 08:09:16;;;;;;;15.75;10.55;;;;;;;3.16;100.00;99496.61;1753005;81;21141;-67
2021/01/07 08:11:52;;;;;;;15.32;11.50;;;;;;;3.15;100.00;99494.14;1733558;82;21598;-70
2021/01/07 08:14:24;;;;;;;15.65;11.08;;;;;;;3.14;100.00;99492.00;1758338;81;21236;-68
2021/01/07 08:16:56;;;;;;;18.67;11.68;;;;;;;3.07;100.00;99481.88;1750651;81;21129;-67
2021/01/07 08:19:35;;;;;;;14.93;10.17;;;;;;;3.12;100.00;99476.77;1899768;74;23339;-67
2021/01/07 08:22:03;;;;;;;16.52;12.00;;;;;;;3.07;100.00;99476.05;1779930;80;20991;-69
2021/01/07 08:24:31;;;;;;;15.05;11.55;;;;;;;3.10;100.00;99475.35;1762904;81;21384;-69
2021/01/07 08:27:19;;;;;;;15.10;10.82;;;;;;;3.16;100.00;99476.68;1790174;80;21042;-68
2021/01/07 08:29:53;;;;;;;18.32;12.88;;;;;;;3.19;100.00;99470.94;1786272;80;21035;-68
2021/01/07 08:32:22;;;;;;;15.85;10.15;;;;;;;3.12;100.00;99468.80;1791521;78;21030;-70
2021/01/07 08:34:49;;;;;;;12.70;9.20;;;;;;;3.12;100.00;99464.02;1774900;80;20984;-67
2021/01/07 08:37:23;;;;;;;14.07;9.45;;;;;;;3.18;100.00;99464.49;1762433;81;21212;-67
2021/01/07 08:39:51;;;;;;;14.03;9.85;;;;;;;3.16;100.00;99458.08;1759156;81;20959;-68
2021/01/07 08:42:20;;;;;;;10.28;8.13;;;;;;;3.18;100.00;99456.02;1754649;81;21022;-68
2021/01/07 08:44:48;;;;;;;14.00;9.60;;;;;;;3.22;100.00;99453.75;1760392;80;21139;-70
2021/01/07 08:47:23;;;;;;;14.33;11.00;;;;;;;3.22;100.00;99451.09;1686706;80;21743;-66
2021/01/07 08:50:07;;;;;;;25.02;12.82;;;;;;;3.28;100.00;99447.61;1732502;82;21379;-68
2021/01/07 08:52:53;;;;;;;17.87;11.97;;;;;;;3.29;100.00;99435.96;1745990;81;21577;-71
2021/01/07 08:55:21;;;;;;;13.85;8.80;;;;;;;3.30;100.00;99436.27;1757748;80;21025;-67
2021/01/07 08:57:50;;;;;;;14.87;10.85;;;;;;;3.30;100.00;99433.61;1788457;80;21058;-66
2021/01/07 09:00:23;;;;;;;13.68;10.28;;;;;;;3.26;100.00;99432.41;1770840;80;21126;-69
2021/01/07 09:03:01;;;;;;;12.13;7.28;;;;;;;3.24;100.00;99425.14;1726375;82;21395;-67
2021/01/07 09:05:29;;;;;;;16.65;11.63;;;;;;;3.27;100.00;99416.23;1771668;80;21193;-66
2021/01/07 09:08:08;;;;;;;12.10;9.40;;;;;;;3.35;100.00;99416.53;1786601;80;21002;-67
2021/01/07 09:10:36;;;;;;;15.93;11.95;;;;;;;3.38;100.00;99406.80;1759713;80;21590;-71
2021/01/07 09:13:22;;;;;;;12.47;8.28;;;;;;;3.42;100.00;99410.66;1759816;81;21173;-66
2021/01/07 09:15:51;;;;;;;19.75;12.78;;;;;;;3.47;100.00;99405.02;1764625;80;21203;-77
2021/01/07 09:18:19;;;;;;;16.23;10.93;;;;;;;3.48;100.00;99400.02;1764129;81;21133;-66
2021/01/07 09:20:47;;;;;;;16.17;10.82;;;;;;;3.57;100.00;99393.93;1761414;80;21168;-70
2021/01/07 09:23:16;;;;;;;13.62;9.75;;;;;;;3.62;100.00;99389.31;1762003;81;21064;-69
2021/01/07 09:25:44;;;;;;;13.98;9.30;;;;;;;3.63;100.00;99385.63;1762273;81;21193;-67
2021/01/07 09:28:12;;;;;;;18.07;11.90;;;;;;;3.55;100.00;99374.70;1762220;81;21394;-68
2021/01/07 09:30:40;;;;;;;15.28;10.93;;;;;;;3.55;100.00;99374.70;1755675;81;21042;-66
2021/01/07 09:33:09;;;;;;;20.57;11.55;;;;;;;3.51;100.00;99372.99;1759193;80;21181;-67
2021/01/07 09:35:37;;;;;;;16.62;10.78;;;;;;;3.60;100.00;99354.94;1761098;81;21062;-68
2021/01/07 09:38:06;;;;;;;17.32;11.30;;;;;;;3.59;100.00;99352.01;1757787;80;21125;-69
2021/01/07 09:40:34;;;;;;;16.35;10.80;;;;;;;3.60;100.00;99350.16;1705017;81;21230;-66
2021/01/07 09:43:02;;;;;;;14.65;9.53;;;;;;;3.60;100.00;99350.16;1775986;80;21205;-67
2021/01/07 09:45:29;;;;;;;15.95;11.50;;;;;;;3.61;100.00;99343.28;1757577;80;21135;-67
2021/01/07 09:47:57;;;;;;;16.82;10.48;;;;;;;3.62;100.00;99339.60;1762231;81;21184;-67
2021/01/07 09:50:25;;;;;;;21.20;14.10;;;;;;;3.62;100.00;99334.80;1756683;80;21104;-68
2021/01/07 09:52:52;;;;;;;16.55;11.15;;;;;;;3.64;100.00;99330.91;1763931;80;21836;-68
2021/01/07 09:55:20;;;;;;;18.05;11.35;;;;;;;3.68;100.00;99320.14;1758536;80;21196;-69
2021/01/07 09:57:49;;;;;;;19.57;11.68;;;;;;;3.70;100.00;99312.75;1751500;80;21123;-67
2021/01/07 10:00:18;;;;;;;20.02;10.48;;;;;;;3.74;100.00;99297.20;1731572;82;21188;-70
2021/01/07 10:02:46;;;;;;;23.80;14.60;;;;;;;3.80;100.00;99298.47;1783881;80;21118;-67
2021/01/07 10:05:14;;;;;;;21.50;14.07;;;;;;;3.82;100.00;99288.95;1748836;81;21402;-68
2021/01/07 10:07:41;;;;;;;22.45;13.78;;;;;;;3.91;100.00;99286.32;1760596;81;21599;-72
2021/01/07 10:10:11;;;;;;;18.17;11.97;;;;;;;4.06;100.00;99280.16;1748650;81;21139;-67
2021/01/07 10:12:38;;;;;;;22.60;12.70;;;;;;;4.14;100.00;99279.06;1760309;80;21121;-70
2021/01/07 10:15:08;;;;;;;21.37;13.03;;;;;;;4.10;100.00;99271.22;1746528;80;21149;-68
2021/01/07 10:17:36;;;;;;;19.73;13.15;;;;;;;4.07;100.00;99259.70;1750365;81;21353;-71
2021/01/07 10:20:06;;;;;;;15.32;9.88;;;;;;;4.00;100.00;99262.91;1756757;81;21570;-72
2021/01/07 10:22:34;;;;;;;21.82;12.13;;;;;;;3.97;100.00;99259.37;1757025;80;21114;-72
2021/01/07 10:25:04;;;;;;;21.50;12.65;;;;;;;3.97;100.00;99265.51;1698713;81;21167;-72
2021/01/07 10:27:32;;;;;;;17.27;11.88;;;;;;;3.94;100.00;99249.96;1733260;81;21160;-72
2021/01/07 10:30:00;;;;;;;13.20;8.95;;;;;;;3.98;100.00;99243.71;1762187;81;21354;-72
2021/01/07 10:32:28;;;;;;;17.17;11.33;;;;;;;3.98;100.00;99243.71;1706622;81;21203;-73
2021/01/07 10:34:56;;;;;;;15.32;9.73;;;;;;;4.02;100.00;99239.06;1751495;81;21192;-73
2021/01/07 10:37:24;;;;;;;18.85;9.33;;;;;;;4.16;100.00;99228.59;1762316;80;21137;-73
2021/01/07 10:39:53;;;;;;;11.93;8.50;;;;;;;4.23;100.00;99218.68;1752250;81;21157;-72
2021/01/07 10:42:23;;;;;;;15.78;9.73;;;;;;;4.24;100.00;99217.66;1760884;81;21420;-74
2021/01/07 10:44:52;;;;;;;14.30;8.88;;;;;;;4.20;100.00;99204.50;1761569;81;21594;-74
2021/01/07 10:47:20;;;;;;;13.65;9.20;;;;;;;4.26;100.00;99207.61;1760755;81;21168;-73
2021/01/07 10:49:47;;;;;;;12.90;7.50;;;;;;;4.30;100.00;99202.14;1761521;81;21618;-74
2021/01/07 10:52:35;;;;;;;15.05;8.55;;;;;;;4.31;100.00;99197.63;1761756;81;21132;-75
2021/01/07 10:55:30;;;;;;;14.07;9.33;;;;;;;4.25;100.00;99184.69;1761685;81;21353;-73
2021/01/07 10:58:34;;;;;;;14.93;8.50;;;;;;;4.22;100.00;99178.45;1761744;81;21220;-73
2021/01/07 11:01:20;;;;;;;14.20;9.10;;;;;;;4.24;100.00;99180.39;1761754;81;21563;-75
2021/01/07 11:04:21;;;;;;;11.95;9.28;;;;;;;4.25;100.00;99175.88;1761946;81;21054;-74
2021/01/07 11:07:06;;;;;;;15.28;8.58;;;;;;;4.29;100.00;99162.42;1763269;81;21129;-75
2021/01/07 11:09:34;;;;;;;14.78;8.93;;;;;;;4.43;100.00;99164.41;1732079;82;23740;-75
2021/01/07 11:12:05;;;;;;;13.78;10.15;;;;;;;4.43;100.00;99159.91;1731788;82;21700;-75
2021/01/07 11:14:41;;;;;;;14.70;9.33;;;;;;;4.41;100.00;99156.67;1736191;81;21018;-74
2021/01/07 11:17:17;;;;;;;15.08;8.85;;;;;;;4.35;100.00;99147.72;1761496;81;21118;-74
2021/01/07 11:19:49;;;;;;;14.10;8.10;;;;;;;4.34;100.00;99144.76;1752190;81;21102;-75
2021/01/07 11:22:21;;;;;;;14.93;9.48;;;;;;;4.35;100.00;99141.58;1747549;82;21388;-74
2021/01/07 11:24:51;;;;;;;16.12;9.75;;;;;;;4.34;100.00;99134.63;1747437;82;21135;-74
2021/01/07 11:27:19;;;;;;;23.10;13.30;;;;;;;4.37;100.00;99121.67;1747362;82;21166;-75
2021/01/07 11:29:46;;;;;;;16.93;12.15;;;;;;;4.43;100.00;99120.48;1749320;82;21678;-73
2021/01/07 11:32:14;;;;;;;12.78;8.28;;;;;;;4.46;100.00;99113.41;1750799;82;21137;-75